createdAt,value
2024-01-09T00:02:17.757Z,36.00
2024-01-09T00:04:44.278Z,34.20
2024-01-09T00:07:10.841Z,31.83
2024-01-09T00:09:37.671Z,32.35
2024-01-09T00:12:04.572Z,32.92
2024-01-09T00:14:31.169Z,44.23
2024-01-09T00:16:57.692Z,44.75
2024-01-09T00:19:24.267Z,48.97
2024-01-09T00:21:51.878Z,43.53
2024-01-09T00:24:18.400Z,36.55
2024-01-09T00:26:45.592Z,37.65
2024-01-09T00:29:12.456Z,39.85
2024-01-09T00:31:39.110Z,32.03
2024-01-09T00:34:05.757Z,42.17
2024-01-09T00:36:32.344Z,37.90
2024-01-09T00:38:58.935Z,42.77
2024-01-09T00:41:25.498Z,35.80
2024-01-09T00:43:52.151Z,48.15
2024-01-09T00:46:18.777Z,49.63
2024-01-09T00:48:45.526Z,34.97
2024-01-09T00:51:12.229Z,40.67
2024-01-09T00:53:38.801Z,42.97
2024-01-09T00:56:06.151Z,41.73
2024-01-09T00:58:32.748Z,33.72
2024-01-09T01:01:00.241Z,40.83
2024-01-09T01:03:26.994Z,34.13
2024-01-09T01:05:53.718Z,48.05
2024-01-09T01:08:20.211Z,43.30
2024-01-09T01:10:46.791Z,33.17
2024-01-09T01:13:13.390Z,38.20
2024-01-09T01:15:39.889Z,46.50
2024-01-09T01:18:06.572Z,39.65
2024-01-09T01:20:33.566Z,40.30
2024-01-09T01:23:00.168Z,49.25
2024-01-09T01:25:26.917Z,42.50
2024-01-09T01:27:53.887Z,39.03
2024-01-09T01:30:20.518Z,49.47
2024-01-09T01:32:47.281Z,41.03
2024-01-09T01:35:13.926Z,45.60
2024-01-09T01:37:40.587Z,44.72
2024-01-09T01:40:07.745Z,39.42
2024-01-09T01:42:34.235Z,50.45
2024-01-09T01:45:00.750Z,37.17
2024-01-09T01:47:27.712Z,40.92
2024-01-09T01:49:55.061Z,34.38
2024-01-09T01:52:21.585Z,35.40
2024-01-09T01:54:48.296Z,54.00
2024-01-09T01:57:15.745Z,29.35
2024-01-09T01:59:46.639Z,53.80
2024-01-09T02:02:15.143Z,26.38
2024-01-09T02:04:42.263Z,48.08
2024-01-09T02:07:09.042Z,29.58
2024-01-09T02:09:37.514Z,48.87
2024-01-09T02:12:05.320Z,34.53
2024-01-09T02:14:31.970Z,47.08
2024-01-09T02:16:58.714Z,49.20
2024-01-09T02:19:25.365Z,37.13
2024-01-09T02:21:52.396Z,54.10
2024-01-09T02:24:19.641Z,40.75
2024-01-09T02:26:59.970Z,39.72
2024-01-09T02:29:34.118Z,35.58
2024-01-09T02:32:01.350Z,41.92
2024-01-09T02:34:30.591Z,40.13
2024-01-09T02:36:57.369Z,33.00
2024-01-09T02:39:23.862Z,45.30
2024-01-09T02:41:51.987Z,32.93
2024-01-09T02:44:19.638Z,45.70
2024-01-09T02:46:46.204Z,52.63
2024-01-09T02:49:12.867Z,46.83
2024-01-09T02:51:39.503Z,44.10
2024-01-09T02:54:06.202Z,50.63
2024-01-09T02:56:35.033Z,47.47
2024-01-09T02:59:01.579Z,40.20
2024-01-09T03:01:28.144Z,54.38
2024-01-09T03:03:54.807Z,40.28
2024-01-09T03:06:21.748Z,39.10
2024-01-09T03:08:51.231Z,53.75
2024-01-09T03:11:18.045Z,36.75
2024-01-09T03:13:44.626Z,40.47
2024-01-09T03:16:14.960Z,46.13
2024-01-09T03:18:44.977Z,49.83
2024-01-09T03:21:12.401Z,54.47
2024-01-09T03:23:39.098Z,55.53
2024-01-09T03:26:05.683Z,46.22
2024-01-09T03:28:32.283Z,46.30
2024-01-09T03:30:58.818Z,41.57
2024-01-09T03:33:25.458Z,42.47
2024-01-09T03:35:52.128Z,42.65
2024-01-09T03:38:18.671Z,39.08
2024-01-09T03:40:45.388Z,42.83
2024-01-09T03:43:11.913Z,55.20
2024-01-09T03:45:38.554Z,49.15
2024-01-09T03:48:05.582Z,41.00
2024-01-09T03:50:32.225Z,51.58
2024-01-09T03:52:58.711Z,39.47
2024-01-09T03:55:26.432Z,39.10
2024-01-09T03:57:52.916Z,41.25
2024-01-09T04:00:19.569Z,40.13
2024-01-09T04:02:46.251Z,41.95
2024-01-09T04:05:12.910Z,38.13
2024-01-09T04:07:39.540Z,41.28
2024-01-09T04:10:06.347Z,46.90
2024-01-09T04:12:32.896Z,43.50
2024-01-09T04:14:59.517Z,41.30
2024-01-09T04:17:26.303Z,39.03
2024-01-09T04:19:52.828Z,39.57
2024-01-09T04:22:19.371Z,50.45
2024-01-09T04:24:45.855Z,41.90
2024-01-09T04:27:12.410Z,39.30
2024-01-09T04:29:38.916Z,41.35
2024-01-09T04:32:05.595Z,38.90
2024-01-09T04:34:32.187Z,47.78
2024-01-09T04:36:58.766Z,46.10
2024-01-09T04:39:25.307Z,44.28
2024-01-09T04:41:51.856Z,52.17
2024-01-09T04:44:18.377Z,40.70
2024-01-09T04:46:44.939Z,41.33
2024-01-09T04:49:11.582Z,41.92
2024-01-09T04:51:38.410Z,40.28
2024-01-09T04:54:04.944Z,33.95
2024-01-09T04:56:31.456Z,30.48
2024-01-09T04:58:58.037Z,32.83
2024-01-09T05:01:24.681Z,29.07
2024-01-09T05:03:52.111Z,32.75
2024-01-09T05:06:19.868Z,32.85
2024-01-09T05:08:48.171Z,26.17
2024-01-09T05:11:18.882Z,30.60
2024-01-09T05:13:46.412Z,27.02
2024-01-09T05:16:12.916Z,30.85
2024-01-09T05:18:39.510Z,32.53
2024-01-09T05:21:06.148Z,40.35
2024-01-09T05:23:32.782Z,43.63
2024-01-09T05:25:59.436Z,40.30
2024-01-09T05:28:26.002Z,33.05
2024-01-09T05:30:52.582Z,40.08
2024-01-09T05:33:19.870Z,30.83
2024-01-09T05:35:46.654Z,38.53
2024-01-09T05:38:18.630Z,33.92
2024-01-09T05:40:49.066Z,39.30
2024-01-09T05:43:15.656Z,35.25
2024-01-09T05:45:42.188Z,26.63
2024-01-09T05:48:09.180Z,29.98
2024-01-09T05:50:36.105Z,58.17
2024-01-09T05:53:03.469Z,37.15
2024-01-09T05:55:30.139Z,36.63
2024-01-09T05:57:56.699Z,33.27
2024-01-09T06:00:23.344Z,26.80
2024-01-09T06:02:49.930Z,33.03
2024-01-09T06:05:16.583Z,30.13
2024-01-09T06:07:43.141Z,30.00
2024-01-09T06:10:10.219Z,18.58
2024-01-09T06:12:36.833Z,28.90
2024-01-09T06:15:04.639Z,24.73
2024-01-09T06:17:31.394Z,23.50
2024-01-09T06:19:58.903Z,20.90
2024-01-09T06:22:25.557Z,25.77
2024-01-09T06:24:52.155Z,25.10
2024-01-09T06:27:18.712Z,24.23
2024-01-09T06:29:45.379Z,29.23
2024-01-09T06:32:12.125Z,35.03
2024-01-09T06:34:38.745Z,27.55
2024-01-09T06:37:05.410Z,24.15
2024-01-09T06:39:31.988Z,27.23
2024-01-09T06:41:58.628Z,28.45
2024-01-09T06:44:25.271Z,72.63
2024-01-09T06:46:51.867Z,44.27
2024-01-09T06:49:18.424Z,44.45
2024-01-09T06:51:45.421Z,40.63
2024-01-09T06:54:12.082Z,48.72
2024-01-09T06:56:45.271Z,42.88
2024-01-09T06:59:12.278Z,49.17
2024-01-09T07:01:39.590Z,53.47
2024-01-09T07:04:10.007Z,54.33
2024-01-09T07:06:36.754Z,42.85
2024-01-09T07:09:04.119Z,47.38
2024-01-09T07:11:30.880Z,51.17
2024-01-09T07:13:57.518Z,67.05
2024-01-09T07:16:24.256Z,53.17
2024-01-09T07:18:50.951Z,42.08
2024-01-09T07:21:17.542Z,53.60
2024-01-09T07:23:45.586Z,50.83
2024-01-09T07:26:12.194Z,49.75
2024-01-09T07:28:39.552Z,42.47
2024-01-09T07:31:06.254Z,44.08
2024-01-09T07:33:32.941Z,44.67
2024-01-09T07:36:05.260Z,45.73
2024-01-09T07:38:31.891Z,40.13
2024-01-09T07:41:00.772Z,44.60
2024-01-09T07:43:27.938Z,42.63
2024-01-09T07:45:54.486Z,42.58
2024-01-09T07:48:21.864Z,43.42
2024-01-09T07:50:48.422Z,44.00
2024-01-09T07:53:15.101Z,46.57
2024-01-09T07:55:41.625Z,43.15
2024-01-09T07:58:08.163Z,44.85
2024-01-09T08:00:34.965Z,51.43
2024-01-09T08:03:04.697Z,41.45
2024-01-09T08:05:31.453Z,49.13
2024-01-09T08:07:58.015Z,48.58
2024-01-09T08:10:24.529Z,44.25
2024-01-09T08:12:51.080Z,48.75
2024-01-09T08:15:17.736Z,50.38
2024-01-09T08:17:44.477Z,48.53
2024-01-09T08:20:11.415Z,38.42
2024-01-09T08:22:38.277Z,52.30
2024-01-09T08:25:05.928Z,37.37
2024-01-09T08:27:32.565Z,35.92
2024-01-09T08:29:59.172Z,40.30
2024-01-09T08:32:26.498Z,47.92
2024-01-09T08:34:53.336Z,47.47
2024-01-09T08:37:20.523Z,49.45
2024-01-09T08:39:47.026Z,46.45
2024-01-09T08:42:13.604Z,67.47
2024-01-09T08:44:40.225Z,53.65
2024-01-09T08:47:06.858Z,43.10
2024-01-09T08:49:33.434Z,40.47
2024-01-09T08:52:00.173Z,62.10
2024-01-09T08:54:26.740Z,61.33
2024-01-09T08:56:53.376Z,49.88
2024-01-09T08:59:19.907Z,60.78
2024-01-09T09:01:46.421Z,45.00
2024-01-09T09:04:13.036Z,62.20
2024-01-09T09:06:39.737Z,44.40
2024-01-09T09:09:06.412Z,42.70
2024-01-09T09:11:34.107Z,50.42
2024-01-09T09:14:00.936Z,43.20
2024-01-09T09:16:30.698Z,67.10
2024-01-09T09:18:57.526Z,51.90
2024-01-09T09:21:24.379Z,41.42
2024-01-09T09:23:50.986Z,43.78
2024-01-09T09:26:17.776Z,49.88
2024-01-09T09:28:59.631Z,41.58
2024-01-09T09:31:30.796Z,49.43
2024-01-09T09:33:57.804Z,54.88
2024-01-09T09:36:25.085Z,48.13
2024-01-09T09:38:54.726Z,60.53
2024-01-09T09:41:21.784Z,50.65
2024-01-09T09:43:51.948Z,52.78
2024-01-09T09:46:25.137Z,46.70
2024-01-09T09:48:54.101Z,48.50
2024-01-09T09:51:23.400Z,50.85
2024-01-09T09:53:53.993Z,51.35
2024-01-09T09:56:21.047Z,39.67
2024-01-09T09:58:47.626Z,48.13
2024-01-09T10:01:15.304Z,51.85
2024-01-09T10:03:58.154Z,54.87
2024-01-09T10:06:26.468Z,56.53
2024-01-09T10:08:55.647Z,55.47
2024-01-09T10:11:22.431Z,52.67
2024-01-09T10:13:49.920Z,46.67
2024-01-09T10:16:16.422Z,48.72
2024-01-09T10:18:43.117Z,48.50
2024-01-09T10:21:09.933Z,38.53
2024-01-09T10:23:39.560Z,52.70
2024-01-09T10:26:11.185Z,48.65
2024-01-09T10:28:38.104Z,40.87
2024-01-09T10:31:07.749Z,44.10
2024-01-09T10:33:34.860Z,38.53
2024-01-09T10:36:01.638Z,41.85
2024-01-09T10:38:28.338Z,41.65
2024-01-09T10:40:57.633Z,46.35
2024-01-09T10:43:28.032Z,38.97
2024-01-09T10:45:54.890Z,40.37
2024-01-09T10:48:22.801Z,43.40
2024-01-09T10:50:52.471Z,38.65
2024-01-09T10:53:21.384Z,44.43
2024-01-09T10:55:50.436Z,41.40
2024-01-09T10:58:18.257Z,49.00
2024-01-09T11:00:45.966Z,34.60
2024-01-09T11:03:12.812Z,29.00
2024-01-09T11:05:39.952Z,42.08
2024-01-09T11:08:11.642Z,41.45
2024-01-09T11:10:39.039Z,39.33
2024-01-09T11:13:07.826Z,37.67
2024-01-09T11:15:39.246Z,37.15
2024-01-09T11:18:10.082Z,38.63
2024-01-09T11:20:36.827Z,33.30
2024-01-09T11:23:03.478Z,34.58
2024-01-09T11:25:35.032Z,32.17
2024-01-09T11:28:01.739Z,41.65
2024-01-09T11:30:34.512Z,45.50
2024-01-09T11:33:33.255Z,39.45
2024-01-09T11:36:07.230Z,51.20
2024-01-09T11:38:34.752Z,44.92
2024-01-09T11:41:08.412Z,55.78
2024-01-09T11:44:00.260Z,53.20
2024-01-09T11:46:29.078Z,42.75
2024-01-09T11:48:56.543Z,47.17
2024-01-09T11:51:24.894Z,42.35
2024-01-09T11:53:51.866Z,44.37
2024-01-09T11:56:19.854Z,38.58
2024-01-09T11:58:48.694Z,47.58
2024-01-09T12:01:15.305Z,40.05
2024-01-09T12:03:41.902Z,45.17
2024-01-09T12:06:08.553Z,45.20
2024-01-09T12:08:35.301Z,41.35
2024-01-09T12:11:02.356Z,42.77
2024-01-09T12:13:28.864Z,41.05
2024-01-09T12:15:55.691Z,49.00
2024-01-09T12:18:22.428Z,38.90
2024-01-09T12:20:49.882Z,50.30
2024-01-09T12:23:16.988Z,41.28
2024-01-09T12:25:45.521Z,42.90
2024-01-09T12:28:12.505Z,38.35
2024-01-09T12:30:39.103Z,38.38
2024-01-09T12:33:06.131Z,40.58
2024-01-09T12:35:32.945Z,42.25
2024-01-09T12:37:59.619Z,34.53
2024-01-09T12:40:26.178Z,53.38
2024-01-09T12:43:12.180Z,42.88
2024-01-09T12:45:40.089Z,47.83
2024-01-09T12:48:10.014Z,40.07
2024-01-09T12:50:36.927Z,44.88
2024-01-09T12:53:04.184Z,43.38
2024-01-09T12:55:30.719Z,42.17
2024-01-09T12:57:59.152Z,41.60
2024-01-09T13:00:27.264Z,34.35
2024-01-09T13:02:53.868Z,35.63
2024-01-09T13:05:20.671Z,30.95
2024-01-09T13:07:47.247Z,33.27
2024-01-09T13:10:14.347Z,43.90
2024-01-09T13:12:40.956Z,36.50
2024-01-09T13:15:08.566Z,41.33
2024-01-09T13:17:35.297Z,33.47
2024-01-09T13:20:07.887Z,27.20
2024-01-09T13:23:46.646Z,31.88
2024-01-09T13:25:22.353Z,33.33
2024-01-09T13:27:50.562Z,29.50
2024-01-09T13:32:46.901Z,32.30
2024-01-09T13:35:13.653Z,33.72
2024-01-09T13:37:40.852Z,31.90
2024-01-09T13:40:10.016Z,38.22
2024-01-09T13:42:36.659Z,31.52
2024-01-09T13:45:04.017Z,25.83
2024-01-09T13:47:30.606Z,30.00
2024-01-09T13:52:27.296Z,28.05
2024-01-09T13:54:54.873Z,33.05
2024-01-09T13:57:21.956Z,32.30
2024-01-09T13:59:48.515Z,34.58
2024-01-09T14:02:15.090Z,28.20
2024-01-09T14:04:42.818Z,32.67
2024-01-09T14:07:12.161Z,29.83
2024-01-09T14:09:38.845Z,35.92
2024-01-09T14:12:06.546Z,32.80
2024-01-09T14:14:35.048Z,32.20
2024-01-09T14:17:05.051Z,32.07
2024-01-09T14:19:31.896Z,30.60
2024-01-09T14:21:58.942Z,33.83
2024-01-09T14:24:25.521Z,32.97
2024-01-09T14:26:52.429Z,31.50
2024-01-09T14:29:19.100Z,35.78
2024-01-09T14:31:45.711Z,33.95
2024-01-09T14:34:13.181Z,28.80
2024-01-09T14:36:41.846Z,30.63
2024-01-09T14:39:08.356Z,30.90
2024-01-09T14:41:34.841Z,30.80
2024-01-09T14:44:02.059Z,30.65
2024-01-09T14:46:28.807Z,27.93
2024-01-09T14:48:56.469Z,29.05
2024-01-09T14:51:23.174Z,29.50
2024-01-09T14:53:49.701Z,28.08
2024-01-09T14:56:19.936Z,25.83
2024-01-09T14:58:46.861Z,29.75
2024-01-09T15:01:16.470Z,28.63
2024-01-09T15:03:47.018Z,28.40
2024-01-09T15:06:13.884Z,25.23
2024-01-09T15:08:40.671Z,28.88
2024-01-09T15:11:11.580Z,22.73
2024-01-09T15:13:38.585Z,19.43
2024-01-09T15:16:06.822Z,20.25
2024-01-09T15:18:33.419Z,32.10
2024-01-09T15:20:59.997Z,24.88
2024-01-09T15:23:28.147Z,28.67
2024-01-09T15:25:56.094Z,39.83
2024-01-09T15:28:22.758Z,30.60
2024-01-09T15:30:49.385Z,32.17
2024-01-09T15:33:17.542Z,26.58
2024-01-09T15:35:45.527Z,24.70
2024-01-09T15:38:12.123Z,22.73
2024-01-09T15:40:38.721Z,27.30
2024-01-09T15:43:05.310Z,27.45
2024-01-09T15:45:33.153Z,29.13
2024-01-09T15:48:00.504Z,29.00
2024-01-09T15:50:28.283Z,39.15
2024-01-09T15:52:54.985Z,28.75
2024-01-09T15:55:22.706Z,28.37
2024-01-09T15:57:49.424Z,32.45
2024-01-09T16:00:17.612Z,40.38
2024-01-09T16:02:44.879Z,40.67
2024-01-09T16:05:12.387Z,32.60
2024-01-09T16:07:39.228Z,39.72
2024-01-09T16:10:08.046Z,41.05
2024-01-09T16:12:34.983Z,44.65
2024-01-09T16:15:02.103Z,40.58
2024-01-09T16:17:28.880Z,38.15
2024-01-09T16:19:55.545Z,38.77
2024-01-09T16:22:22.140Z,41.40
2024-01-09T16:24:48.745Z,36.15
2024-01-09T16:27:15.474Z,35.73
2024-01-09T16:29:42.015Z,35.08
2024-01-09T16:32:08.634Z,33.17
2024-01-09T16:34:35.390Z,39.13
2024-01-09T16:37:02.078Z,32.55
2024-01-09T16:39:28.650Z,29.30
2024-01-09T16:41:56.659Z,35.58
2024-01-09T16:44:23.752Z,30.53
2024-01-09T16:46:50.421Z,28.67
2024-01-09T16:49:17.277Z,32.33
2024-01-09T16:51:45.442Z,27.87
2024-01-09T16:54:12.051Z,30.70
2024-01-09T16:56:38.829Z,33.40
2024-01-09T16:59:05.446Z,35.45
2024-01-09T17:01:32.168Z,17.67
2024-01-09T17:03:59.142Z,25.77
2024-01-09T17:06:25.957Z,31.13
2024-01-09T17:08:53.599Z,36.73
2024-01-09T17:11:20.654Z,37.08
2024-01-09T17:13:47.834Z,40.25
2024-01-09T17:16:14.549Z,51.00
2024-01-09T17:18:42.879Z,52.03
2024-01-09T17:21:10.732Z,36.65
2024-01-09T17:23:37.375Z,46.47
2024-01-09T17:26:04.718Z,52.78
2024-01-09T17:28:32.489Z,52.65
2024-01-09T17:30:59.514Z,52.42
2024-01-09T17:33:26.237Z,56.17
2024-01-09T17:35:53.096Z,57.60
2024-01-09T17:38:19.746Z,58.28
2024-01-09T17:40:46.294Z,73.30
2024-01-09T17:43:12.856Z,73.28
2024-01-09T17:45:40.287Z,67.00
2024-01-09T17:48:08.087Z,59.60
2024-01-09T17:50:34.767Z,73.10
2024-01-09T17:53:01.457Z,59.42
2024-01-09T17:55:28.045Z,67.05
2024-01-09T17:57:54.696Z,61.80
2024-01-09T18:00:21.943Z,63.40
2024-01-09T18:02:48.487Z,59.78
2024-01-09T18:05:15.236Z,54.30
2024-01-09T18:07:42.023Z,46.40
2024-01-09T18:10:09.194Z,42.50
2024-01-09T18:12:35.986Z,40.50
2024-01-09T18:15:03.166Z,42.60
2024-01-09T18:17:33.749Z,34.38
2024-01-09T18:20:00.642Z,39.45
2024-01-09T18:22:27.540Z,44.37
2024-01-09T18:24:54.789Z,53.15
2024-01-09T18:27:21.315Z,45.20
2024-01-09T18:29:47.951Z,45.70
2024-01-09T18:32:16.545Z,46.88
2024-01-09T18:34:43.235Z,56.65
2024-01-09T18:37:09.766Z,50.33
2024-01-09T18:39:37.516Z,68.20
2024-01-09T18:42:05.078Z,55.38
2024-01-09T18:44:31.772Z,61.25
2024-01-09T18:46:58.465Z,56.63
2024-01-09T18:49:25.758Z,78.20
2024-01-09T18:51:52.487Z,89.78
2024-01-09T18:54:19.555Z,82.83
2024-01-09T18:56:48.725Z,98.38
2024-01-09T18:59:17.732Z,86.88
2024-01-09T19:01:44.364Z,93.47
2024-01-09T19:04:11.196Z,71.45
2024-01-09T19:06:37.867Z,79.85
2024-01-09T19:09:08.578Z,75.75
2024-01-09T19:11:35.976Z,76.17
2024-01-09T19:14:02.788Z,78.30
2024-01-09T19:16:29.638Z,64.18
2024-01-09T19:18:56.739Z,78.70
2024-01-09T19:21:23.417Z,77.63
2024-01-09T19:23:49.976Z,69.68
2024-01-09T19:26:16.702Z,69.18
2024-01-09T19:28:43.853Z,76.18
2024-01-09T19:31:10.860Z,88.88
2024-01-09T19:33:38.445Z,76.00
2024-01-09T19:36:12.803Z,63.37
2024-01-09T19:38:41.267Z,70.65
2024-01-09T19:41:19.047Z,87.35
2024-01-09T19:43:45.752Z,107.97
2024-01-09T19:46:12.296Z,98.55
2024-01-09T19:48:39.116Z,89.90
2024-01-09T19:51:09.229Z,102.38
2024-01-09T19:53:36.027Z,78.28
2024-01-09T19:56:04.276Z,89.03
2024-01-09T19:58:31.752Z,83.38
2024-01-09T20:00:58.403Z,83.27
2024-01-09T20:03:25.002Z,83.38
2024-01-09T20:05:51.733Z,85.63
2024-01-09T20:08:18.517Z,75.47
2024-01-09T20:10:45.465Z,72.00
2024-01-09T20:13:11.956Z,73.13
2024-01-09T20:15:38.928Z,56.55
2024-01-09T20:18:05.958Z,67.55
2024-01-09T20:20:32.692Z,78.28
2024-01-09T20:22:59.457Z,66.22
2024-01-09T20:25:27.087Z,65.20
2024-01-09T20:27:57.991Z,50.15
2024-01-09T20:30:24.728Z,83.95
2024-01-09T20:32:51.433Z,96.70
2024-01-09T20:35:20.137Z,102.57
2024-01-09T20:37:46.722Z,91.43
2024-01-09T20:40:13.588Z,88.70
2024-01-09T20:42:40.083Z,103.65
2024-01-09T20:45:07.282Z,89.93
2024-01-09T20:47:35.144Z,80.10
2024-01-09T20:50:02.439Z,78.97
2024-01-09T20:52:29.425Z,71.88
2024-01-09T20:54:56.198Z,69.47
2024-01-09T20:57:22.748Z,72.47
2024-01-09T20:59:49.282Z,86.10
2024-01-09T21:02:16.990Z,88.88
2024-01-09T21:04:44.059Z,81.55
2024-01-09T21:11:27.647Z,59.85
